Time;durP1;ratioP1;P1;durP2;ratioP2;P2;SDS_P1;SDS_P2;PMS_P1;PMS_P2;Temp;Humidity;BMP_temperature;BMP_pressure;BME280_temperature;BME280_humidity;BME280_pressure;Samples;Min_cycle;Max_cycle;Signal;HPM_P1;HPM_P2
2022/02/10 00:14:45;;;;;;;24.13;11.18;;;;;;;;;;5013665;28;20565;-63
2022/02/10 00:19:49;;;;;;;22.45;9.00;;;;;;;;;;5001670;28;20054;-63
2022/02/10 00:22:49;;;;;;;31.15;11.48;;;;;;;;;;5004798;28;20513;-63
2022/02/10 00:25:41;;;;;;;22.95;9.90;;;;;;;;;;5021177;28;20121;-63
2022/02/10 00:36:10;;;;;;;20.00;8.45;;;;;;;;;;5082821;28;20110;-64
2022/02/10 00:38:41;;;;;;;24.38;9.57;;;;;;;;;;5107178;28;20051;-63
2022/02/10 00:41:07;;;;;;;21.63;9.80;;;;;;;;;;5107074;28;20063;-63
2022/02/10 00:43:33;;;;;;;22.42;9.75;;;;;;;;;;5107238;28;20054;-63
2022/02/10 00:45:59;;;;;;;22.55;8.77;;;;;;;;;;5105737;28;20050;-63
2022/02/10 00:48:25;;;;;;;24.27;10.55;;;;;;;;;;5093940;28;20052;-63
2022/02/10 00:50:52;;;;;;;21.88;10.63;;;;;;;;;;5086127;28;20041;-64
2022/02/10 00:53:28;;;;;;;26.70;11.30;;;;;;;;;;5086845;28;20044;-63
2022/02/10 00:55:55;;;;;;;26.73;10.45;;;;;;;;;;5086791;28;20063;-63
2022/02/10 00:58:27;;;;;;;23.50;10.65;;;;;;;;;;5085233;28;20048;-64
2022/02/10 01:24:26;;;;;;;23.10;10.02;;;;;;;;;;5106644;28;20061;-63
2022/02/10 01:30:29;;;;;;;17.38;8.98;;;;;;;;;;5085966;28;20048;-63
2022/02/10 01:32:59;;;;;;;25.83;8.13;;;;;;;;;;5084533;28;20108;-63
2022/02/10 01:35:26;;;;;;;16.17;7.38;;;;;;;;;;5087195;28;20040;-63
2022/02/10 01:37:52;;;;;;;14.80;7.15;;;;;;;;;;5105490;28;20052;-63
2022/02/10 01:40:26;;;;;;;17.58;7.70;;;;;;;;;;5105048;28;20157;-63
2022/02/10 02:04:38;;;;;;;12.98;5.90;;;;;;;;;;5104356;28;20069;-63
2022/02/10 02:07:04;;;;;;;17.65;5.65;;;;;;;;;;5105167;28;20501;-63
2022/02/10 02:09:30;;;;;;;8.07;4.82;;;;;;;;;;5104509;28;20072;-63
2022/02/10 02:11:57;;;;;;;10.65;5.72;;;;;;;;;;5094399;28;20179;-63
2022/02/10 02:14:25;;;;;;;10.10;5.50;;;;;;;;;;5085262;28;20044;-63
2022/02/10 02:16:52;;;;;;;8.27;5.03;;;;;;;;;;5084815;28;20052;-63
2022/02/10 02:19:18;;;;;;;13.07;6.38;;;;;;;;;;5100872;28;20048;-63
2022/02/10 02:21:45;;;;;;;17.83;6.63;;;;;;;;;;5084578;28;20051;-63
2022/02/10 02:24:14;;;;;;;10.45;5.72;;;;;;;;;;5084865;28;20040;-63
2022/02/10 02:26:41;;;;;;;15.63;6.25;;;;;;;;;;5101848;28;20131;-63
2022/02/10 02:29:11;;;;;;;8.30;5.25;;;;;;;;;;5105381;28;20040;-63
2022/02/10 02:31:43;;;;;;;7.05;4.43;;;;;;;;;;5104729;28;20074;-63
2022/02/10 02:35:11;;;;;;;8.48;4.75;;;;;;;;;;5105119;28;20070;-63
2022/02/10 03:06:50;;;;;;;11.32;5.25;;;;;;;;;;5083950;28;20055;-64
2022/02/10 03:09:23;;;;;;;11.85;6.13;;;;;;;;;;5084278;28;20424;-63
2022/02/10 03:11:49;;;;;;;15.88;6.85;;;;;;;;;;5101375;28;20040;-63
2022/02/10 03:14:31;;;;;;;15.63;6.53;;;;;;;;;;5104504;28;20051;-64
2022/02/10 04:03:25;;;;;;;14.55;7.85;;;;;;;;;;5065841;28;20512;-63
2022/02/10 04:14:13;;;;;;;17.83;8.77;;;;;;;;;;5065232;28;20057;-63
2022/02/10 04:16:50;;;;;;;16.70;8.90;;;;;;;;;;5064800;28;20041;-63
2022/02/10 04:19:44;;;;;;;15.30;8.50;;;;;;;;;;5064635;28;20057;-64
2022/02/10 04:22:20;;;;;;;22.48;9.23;;;;;;;;;;5066037;28;20041;-64
2022/02/10 04:28:15;;;;;;;19.40;9.90;;;;;;;;;;5064605;28;20057;-64
2022/02/10 05:34:33;;;;;;;28.20;14.70;;;;;;;;;;5086017;28;20060;-65
2022/02/10 05:37:01;;;;;;;28.73;14.00;;;;;;;;;;5093518;28;20040;-65
2022/02/10 05:39:30;;;;;;;;;;;;;;;;;;5105540;28;20044;-64
2022/02/10 06:38:49;;;;;;;34.08;14.00;;;;;;;;;;5099881;28;20102;-64
2022/02/10 06:47:44;;;;;;;41.33;17.10;;;;;;;;;;5075915;28;20104;-65
2022/02/10 07:02:55;;;;;;;37.03;16.40;;;;;;;;;;5100396;28;20040;-65
2022/02/10 07:06:11;;;;;;;37.25;16.55;;;;;;;;;;5082538;28;20037;-64
2022/02/10 07:08:27;;;;;;;32.25;15.35;;;;;;;;;;5091002;28;20043;-64
2022/02/10 07:14:31;;;;;;;34.30;15.55;;;;;;;;;;5053073;28;20475;-64
2022/02/10 07:52:28;;;;;;;35.60;16.13;;;;;;;;;;5067257;28;20071;-63
2022/02/10 07:55:23;;;;;;;42.55;14.90;;;;;;;;;;5099391;28;20047;-65
2022/02/10 08:28:38;;;;;;;27.20;9.35;;;;;;;;;;5077483;28;20419;-63
2022/02/10 08:49:53;;;;;;;12.57;5.63;;;;;;;;;;5071518;28;20095;-65
2022/02/10 09:01:24;;;;;;;15.05;5.25;;;;;;;;;;5083158;28;21163;-64
2022/02/10 09:22:01;;;;;;;18.55;4.15;;;;;;;;;;5072799;28;20048;-65
2022/02/10 10:02:38;;;;;;;16.40;3.15;;;;;;;;;;5074653;28;20063;-65
2022/02/10 10:21:10;;;;;;;24.02;3.72;;;;;;;;;;5074970;28;20571;-66
2022/02/10 10:23:49;;;;;;;9.82;2.83;;;;;;;;;;5086290;28;20506;-65
2022/02/10 10:56:08;;;;;;;17.80;2.83;;;;;;;;;;5087115;28;20044;-65
2022/02/10 11:41:30;;;;;;;15.35;2.13;;;;;;;;;;5058679;28;20056;-65
2022/02/10 11:44:14;;;;;;;11.68;3.67;;;;;;;;;;5054433;28;20053;-66
2022/02/10 11:47:52;;;;;;;12.00;2.47;;;;;;;;;;5052132;28;20056;-65
2022/02/10 14:13:11;;;;;;;9.63;2.30;;;;;;;;;;5046204;28;20049;-68
2022/02/10 14:15:57;;;;;;;;;;;;;;;;;;5043838;28;20038;-69
2022/02/10 14:18:27;;;;;;;7.20;1.30;;;;;;;;;;5042528;28;19929;-69
2022/02/10 14:25:58;;;;;;;20.90;2.45;;;;;;;;;;5033109;28;20092;-66
2022/02/10 14:28:26;;;;;;;9.63;2.22;;;;;;;;;;5018156;28;20110;-66
2022/02/10 14:30:52;;;;;;;9.13;2.10;;;;;;;;;;5040491;28;20053;-66
2022/02/10 14:33:28;;;;;;;13.20;2.45;;;;;;;;;;5041145;28;20141;-66
2022/02/10 14:36:00;;;;;;;16.90;2.53;;;;;;;;;;5038544;28;20046;-66
2022/02/10 15:11:28;;;;;;;7.07;2.05;;;;;;;;;;5099328;28;20458;-63
2022/02/10 16:18:08;;;;;;;11.70;2.60;;;;;;;;;;5075185;28;20058;-63
2022/02/10 16:20:34;;;;;;;19.35;2.90;;;;;;;;;;5103311;28;20047;-63
2022/02/10 16:25:35;;;;;;;18.58;2.85;;;;;;;;;;5072482;28;20072;-64
2022/02/10 16:28:12;;;;;;;18.05;2.95;;;;;;;;;;5081417;28;20060;-63
2022/02/10 16:30:38;;;;;;;24.88;3.20;;;;;;;;;;5075644;28;20059;-64
2022/02/10 16:33:05;;;;;;;13.38;2.22;;;;;;;;;;5076991;28;20052;-64
2022/02/10 16:35:31;;;;;;;15.10;3.50;;;;;;;;;;5085048;28;20044;-64
2022/02/10 16:37:59;;;;;;;13.00;2.47;;;;;;;;;;5084588;28;20040;-64
2022/02/10 16:40:25;;;;;;;18.45;2.63;;;;;;;;;;5084359;28;20119;-64
2022/02/10 16:42:53;;;;;;;13.70;2.72;;;;;;;;;;5079416;28;20048;-63
2022/02/10 16:45:19;;;;;;;13.98;2.92;;;;;;;;;;5081177;28;20084;-63
2022/02/10 16:47:45;;;;;;;23.90;2.75;;;;;;;;;;5081893;28;20148;-63
2022/02/10 16:50:11;;;;;;;13.48;2.33;;;;;;;;;;5089259;28;20062;-64
2022/02/10 16:52:43;;;;;;;22.38;2.72;;;;;;;;;;5084101;28;20045;-63
2022/02/10 17:03:23;;;;;;;17.77;3.55;;;;;;;;;;5099588;28;20078;-63
2022/02/10 17:19:36;;;;;;;;;;;;;;;;;;5071221;28;20076;-64
2022/02/10 17:46:40;;;;;;;19.05;3.70;;;;;;;;;;5091058;28;20075;-63
2022/02/10 17:53:56;;;;;;;17.08;3.03;;;;;;;;;;5075335;28;20064;-63
2022/02/10 17:56:23;;;;;;;18.73;2.85;;;;;;;;;;5073821;28;20037;-63
2022/02/10 17:58:49;;;;;;;18.87;2.33;;;;;;;;;;5083245;28;20044;-64
2022/02/10 18:01:16;;;;;;;17.80;2.75;;;;;;;;;;5074932;28;20069;-63
2022/02/10 18:03:42;;;;;;;8.90;2.55;;;;;;;;;;5095378;28;20104;-63
2022/02/10 18:08:41;;;;;;;19.13;2.47;;;;;;;;;;5074969;28;20127;-63
2022/02/10 18:13:56;;;;;;;16.95;3.15;;;;;;;;;;5085354;28;20200;-63
2022/02/10 18:16:30;;;;;;;15.63;2.55;;;;;;;;;;5084071;28;20056;-63
2022/02/10 18:19:11;;;;;;;20.08;3.25;;;;;;;;;;5082679;28;20104;-63
2022/02/10 18:25:20;;;;;;;19.75;2.83;;;;;;;;;;5067580;28;20132;-63
2022/02/10 19:07:53;;;;;;;13.60;3.65;;;;;;;;;;5060499;28;20052;-65
2022/02/10 19:10:23;;;;;;;18.45;3.25;;;;;;;;;;5044713;28;20088;-65
2022/02/10 19:12:55;;;;;;;18.00;3.92;;;;;;;;;;5060376;28;20196;-65
2022/02/10 19:15:32;;;;;;;14.05;3.10;;;;;;;;;;5061750;28;20207;-64
2022/02/10 19:17:58;;;;;;;15.35;3.05;;;;;;;;;;5061028;28;20103;-66
2022/02/10 19:20:26;;;;;;;24.10;3.72;;;;;;;;;;5061682;28;20112;-66
2022/02/10 19:22:52;;;;;;;18.60;3.80;;;;;;;;;;5058471;28;20041;-65
2022/02/10 19:25:20;;;;;;;13.15;2.90;;;;;;;;;;5061132;28;20049;-66
2022/02/10 19:27:48;;;;;;;10.43;3.60;;;;;;;;;;5061519;28;20053;-65
2022/02/10 19:30:15;;;;;;;10.85;2.83;;;;;;;;;;5061689;28;20475;-66
2022/02/10 19:32:46;;;;;;;20.88;3.40;;;;;;;;;;5060160;28;20155;-67
2022/02/10 19:35:15;;;;;;;25.02;4.07;;;;;;;;;;5061579;28;20136;-66
2022/02/10 19:37:41;;;;;;;13.60;3.13;;;;;;;;;;5060365;28;20056;-67
2022/02/10 19:40:08;;;;;;;19.95;3.08;;;;;;;;;;5058570;28;20103;-66
2022/02/10 19:42:36;;;;;;;13.73;3.35;;;;;;;;;;5062055;28;20045;-66
2022/02/10 19:45:04;;;;;;;12.30;3.25;;;;;;;;;;5085066;28;20516;-65
2022/02/10 19:47:30;;;;;;;;;;;;;;;;;;5083849;28;20083;-66
2022/02/10 19:49:57;;;;;;;13.05;2.90;;;;;;;;;;5070166;28;20518;-65
2022/02/10 19:52:24;;;;;;;18.10;3.42;;;;;;;;;;5066696;28;20049;-66
2022/02/10 19:54:52;;;;;;;17.35;3.13;;;;;;;;;;5063512;28;20077;-65
2022/02/10 19:57:21;;;;;;;17.05;2.83;;;;;;;;;;5076941;28;20131;-66
2022/02/10 19:59:48;;;;;;;26.60;3.25;;;;;;;;;;5080882;28;20049;-65
2022/02/10 20:02:16;;;;;;;14.70;3.03;;;;;;;;;;5074878;28;20041;-68
2022/02/10 20:04:42;;;;;;;19.52;3.05;;;;;;;;;;5080210;28;20143;-66
2022/02/10 20:07:11;;;;;;;10.15;2.92;;;;;;;;;;5068078;28;20096;-67
2022/02/10 20:09:37;;;;;;;19.95;3.60;;;;;;;;;;5080173;28;20041;-65
2022/02/10 20:12:04;;;;;;;10.20;2.30;;;;;;;;;;5083452;28;20105;-65
2022/02/10 20:14:30;;;;;;;19.85;2.97;;;;;;;;;;5084613;28;20147;-66
2022/02/10 20:16:57;;;;;;;21.17;3.85;;;;;;;;;;5076708;28;20041;-66
2022/02/10 20:19:24;;;;;;;10.77;2.50;;;;;;;;;;5078282;28;20120;-66
2022/02/10 20:21:51;;;;;;;16.42;3.00;;;;;;;;;;5068944;28;20052;-66
2022/02/10 20:24:17;;;;;;;18.73;3.30;;;;;;;;;;5086276;28;20516;-67
2022/02/10 20:26:43;;;;;;;16.10;3.15;;;;;;;;;;5087808;28;20166;-66
2022/02/10 20:29:11;;;;;;;17.00;2.92;;;;;;;;;;5079241;28;20049;-66
2022/02/10 20:31:39;;;;;;;;;;;;;;;;;;5064437;28;20045;-66
2022/02/10 20:34:11;;;;;;;14.63;3.72;;;;;;;;;;5072628;28;19965;-65
2022/02/10 20:36:38;;;;;;;26.40;4.32;;;;;;;;;;5081880;28;20044;-65
2022/02/10 20:39:04;;;;;;;13.32;2.58;;;;;;;;;;5082936;28;20131;-66
2022/02/10 20:41:33;;;;;;;8.90;2.35;;;;;;;;;;5068484;28;20053;-65
2022/02/10 20:44:01;;;;;;;15.15;2.55;;;;;;;;;;5085798;28;20442;-65
2022/02/10 20:46:29;;;;;;;18.38;3.83;;;;;;;;;;5086504;28;20098;-66
2022/02/10 20:48:56;;;;;;;13.07;3.15;;;;;;;;;;5083082;28;20057;-65
2022/02/10 20:51:22;;;;;;;15.88;2.95;;;;;;;;;;5079162;28;20040;-66
2022/02/10 20:53:50;;;;;;;11.43;3.17;;;;;;;;;;5078479;28;20049;-65
2022/02/10 20:56:18;;;;;;;14.77;3.80;;;;;;;;;;5088266;28;20051;-65
2022/02/10 20:58:44;;;;;;;13.52;3.63;;;;;;;;;;5080275;28;20040;-66
2022/02/10 21:01:13;;;;;;;18.80;4.35;;;;;;;;;;5081699;28;20067;-66
2022/02/10 21:03:40;;;;;;;20.63;3.65;;;;;;;;;;5077668;28;20045;-66
2022/02/10 21:08:54;;;;;;;15.27;3.85;;;;;;;;;;5095703;28;20053;-66
2022/02/10 21:11:25;;;;;;;17.45;3.22;;;;;;;;;;5098726;28;20039;-66
2022/02/10 21:13:52;;;;;;;17.58;3.58;;;;;;;;;;5090844;28;20041;-65
2022/02/10 21:16:18;;;;;;;13.50;3.85;;;;;;;;;;5090949;28;20041;-66
2022/02/10 21:18:45;;;;;;;10.80;3.00;;;;;;;;;;5083851;28;20462;-65
2022/02/10 21:21:15;;;;;;;19.13;3.78;;;;;;;;;;5098664;28;20097;-66
2022/02/10 21:24:02;;;;;;;18.45;4.50;;;;;;;;;;5079841;28;20062;-65
2022/02/10 21:26:33;;;;;;;19.85;4.78;;;;;;;;;;5079823;28;20036;-66
2022/02/10 21:29:03;;;;;;;15.07;2.90;;;;;;;;;;5082882;28;20077;-66
2022/02/10 21:31:30;;;;;;;9.52;2.80;;;;;;;;;;5098223;28;20057;-66
2022/02/10 21:34:08;;;;;;;18.03;4.63;;;;;;;;;;5086380;28;20401;-65
2022/02/10 21:36:59;;;;;;;17.80;3.28;;;;;;;;;;5089530;28;20776;-65
2022/02/10 21:39:50;;;;;;;13.75;4.00;;;;;;;;;;5083394;28;20040;-65
2022/02/10 21:47:55;;;;;;;13.23;4.43;;;;;;;;;;5068209;28;20045;-66
2022/02/10 21:56:27;;;;;;;21.58;4.05;;;;;;;;;;5080570;28;20056;-66
2022/02/10 22:17:51;;;;;;;15.07;3.28;;;;;;;;;;5073082;28;20145;-65
2022/02/10 22:20:10;;;;;;;11.38;3.50;;;;;;;;;;5079030;28;20060;-66
2022/02/10 22:22:40;;;;;;;15.35;3.60;;;;;;;;;;5074113;28;20040;-66
2022/02/10 22:25:12;;;;;;;15.40;3.45;;;;;;;;;;5066936;28;20049;-65
2022/02/10 22:27:43;;;;;;;11.38;2.67;;;;;;;;;;5101855;28;20045;-66
2022/02/10 22:30:18;;;;;;;19.58;4.05;;;;;;;;;;5091411;28;20056;-65
2022/02/10 22:33:03;;;;;;;15.43;3.28;;;;;;;;;;5081378;28;20045;-65
2022/02/10 22:35:32;;;;;;;16.77;4.70;;;;;;;;;;5110285;27;20557;-65
2022/02/10 22:37:58;;;;;;;20.10;4.15;;;;;;;;;;5073359;28;20474;-66
2022/02/10 22:40:40;;;;;;;13.95;3.72;;;;;;;;;;5078338;28;20091;-65
2022/02/10 22:43:07;;;;;;;20.10;4.63;;;;;;;;;;5073079;28;20057;-66
2022/02/10 22:45:34;;;;;;;18.00;3.63;;;;;;;;;;5054381;28;20049;-65
2022/02/10 22:48:00;;;;;;;15.93;4.33;;;;;;;;;;5070191;28;20321;-65
2022/02/10 22:50:26;;;;;;;17.50;3.83;;;;;;;;;;5063949;28;20124;-65
2022/02/10 22:52:54;;;;;;;11.13;3.25;;;;;;;;;;5107522;28;20087;-66
2022/02/10 22:55:20;;;;;;;16.33;2.97;;;;;;;;;;5073772;28;20047;-65
2022/02/10 22:57:48;;;;;;;17.23;4.78;;;;;;;;;;5083032;28;20059;-65
2022/02/10 23:00:26;;;;;;;17.05;3.28;;;;;;;;;;5089673;28;20052;-65
2022/02/10 23:02:54;;;;;;;16.77;3.10;;;;;;;;;;5096364;28;20105;-66
2022/02/10 23:05:22;;;;;;;14.00;3.28;;;;;;;;;;5072726;28;20052;-65
2022/02/10 23:07:52;;;;;;;13.02;3.13;;;;;;;;;;5081787;28;20053;-65
2022/02/10 23:12:44;;;;;;;13.43;3.88;;;;;;;;;;5077954;28;20124;-66
2022/02/10 23:15:10;;;;;;;11.90;2.58;;;;;;;;;;5075831;28;20061;-65
2022/02/10 23:17:39;;;;;;;14.57;2.67;;;;;;;;;;5064187;28;20576;-66
2022/02/10 23:20:05;;;;;;;8.52;2.33;;;;;;;;;;5071553;28;20051;-65
2022/02/10 23:22:32;;;;;;;9.43;2.67;;;;;;;;;;5078533;28;20134;-65
2022/02/10 23:24:58;;;;;;;11.68;2.72;;;;;;;;;;5090373;28;20328;-65
2022/02/10 23:27:24;;;;;;;6.65;2.22;;;;;;;;;;5083305;28;20564;-65
2022/02/10 23:29:50;;;;;;;14.43;2.90;;;;;;;;;;5082452;28;20123;-65
2022/02/10 23:32:16;;;;;;;15.10;3.20;;;;;;;;;;5081963;28;20064;-65
2022/02/10 23:34:42;;;;;;;15.65;2.75;;;;;;;;;;5098705;28;20116;-64
2022/02/10 23:37:08;;;;;;;10.93;2.72;;;;;;;;;;5081632;28;20080;-65
2022/02/10 23:39:38;;;;;;;14.98;2.67;;;;;;;;;;5074528;28;20100;-65
2022/02/10 23:42:21;;;;;;;16.00;3.30;;;;;;;;;;5080711;28;20056;-64
2022/02/10 23:44:50;;;;;;;8.65;2.30;;;;;;;;;;5082447;28;20074;-64
2022/02/10 23:47:22;;;;;;;15.25;2.80;;;;;;;;;;5082620;28;20051;-64
2022/02/10 23:49:53;;;;;;;12.02;2.13;;;;;;;;;;5069334;28;20044;-65
2022/02/10 23:52:25;;;;;;;13.70;3.47;;;;;;;;;;5079699;28;20048;-65
2022/02/10 23:54:56;;;;;;;6.80;2.45;;;;;;;;;;5083747;28;20071;-65
2022/02/10 23:57:35;;;;;;;12.68;2.88;;;;;;;;;;5080244;28;20491;-65
